createdAt,value
2023-04-17T00:00:01.863Z,9.9
2023-04-17T00:01:01.687Z,9.8
2023-04-17T00:02:02.314Z,9.8
2023-04-17T00:03:02.365Z,9.9
2023-04-17T00:04:01.659Z,9.8
2023-04-17T00:05:01.984Z,9.8
2023-04-17T00:06:01.773Z,9.8
2023-04-17T00:07:01.840Z,9.7
2023-04-17T00:08:01.735Z,9.7
2023-04-17T00:09:01.752Z,9.6
2023-04-17T00:10:01.593Z,9.8
2023-04-17T00:11:07.487Z,9.8
2023-04-17T00:12:01.849Z,9.8
2023-04-17T00:13:01.754Z,9.7
2023-04-17T00:14:01.803Z,9.7
2023-04-17T00:15:01.638Z,9.6
2023-04-17T00:16:01.708Z,9.7
2023-04-17T00:17:01.512Z,9.7
2023-04-17T00:18:01.626Z,9.6
2023-04-17T00:19:01.480Z,9.7
2023-04-17T00:20:01.538Z,9.8
2023-04-17T00:21:01.409Z,9.8
2023-04-17T00:22:01.831Z,9.7
2023-04-17T00:23:01.466Z,9.6
2023-04-17T00:24:01.522Z,9.4
2023-04-17T00:25:01.303Z,9.6
2023-04-17T00:26:01.331Z,9.7
2023-04-17T00:27:02.364Z,9.5
2023-04-17T00:28:02.220Z,9.5
2023-04-17T00:29:02.264Z,9.4
2023-04-17T00:30:02.229Z,9.3
2023-04-17T00:31:02.223Z,9.4
2023-04-17T00:32:01.965Z,9.5
2023-04-17T00:33:02.001Z,9.5
2023-04-17T00:34:01.808Z,9.4
2023-04-17T00:35:01.739Z,9.5
2023-04-17T00:36:01.746Z,9.4
2023-04-17T00:37:01.737Z,9.4
2023-04-17T00:38:01.623Z,9.4
2023-04-17T00:39:01.581Z,9.4
2023-04-17T00:40:01.545Z,9.4
2023-04-17T00:41:01.487Z,9.3
2023-04-17T00:42:01.427Z,9.4
2023-04-17T00:43:01.411Z,9.4
2023-04-17T00:44:01.335Z,9.4
2023-04-17T00:45:02.369Z,9.4
2023-04-17T00:46:02.306Z,9.3
2023-04-17T00:47:02.230Z,9.3
2023-04-17T00:48:02.329Z,9.3
2023-04-17T00:49:02.155Z,9.3
2023-04-17T00:50:02.206Z,9.2
2023-04-17T00:51:02.092Z,9.4
2023-04-17T00:52:02.068Z,9.4
2023-04-17T00:53:01.981Z,9.3
2023-04-17T00:54:02.019Z,9.2
2023-04-17T00:55:01.889Z,9.3
2023-04-17T00:56:01.797Z,9.2
2023-04-17T00:57:01.881Z,9.3
2023-04-17T00:58:01.793Z,9.3
2023-04-17T00:59:01.635Z,9.4
2023-04-17T01:00:03.084Z,9.4
2023-04-17T01:01:01.952Z,9.3
2023-04-17T01:02:01.531Z,9.2
2023-04-17T01:03:01.620Z,9.3
2023-04-17T01:04:01.879Z,9.4
2023-04-17T01:05:02.083Z,9.3
2023-04-17T01:06:02.075Z,9.2
2023-04-17T01:07:01.984Z,9.3
2023-04-17T01:08:01.914Z,9.4
2023-04-17T01:09:01.961Z,9.4
2023-04-17T01:10:01.813Z,9.4
2023-04-17T01:11:01.749Z,9.3
2023-04-17T01:12:01.748Z,9.3
2023-04-17T01:13:01.656Z,9.3
2023-04-17T01:14:01.720Z,9.4
2023-04-17T01:15:01.568Z,9.3
2023-04-17T01:16:01.634Z,9.2
2023-04-17T01:17:01.304Z,9.2
2023-04-17T01:18:02.384Z,9.1
2023-04-17T01:19:02.238Z,9.2
2023-04-17T01:20:02.210Z,9.1
2023-04-17T01:21:02.118Z,9.1
2023-04-17T01:22:02.177Z,9.2
2023-04-17T01:23:02.060Z,9.3
2023-04-17T01:24:02.122Z,9
2023-04-17T01:25:02.002Z,9.2
2023-04-17T01:26:01.939Z,9.3
2023-04-17T01:27:01.989Z,9.2
2023-04-17T01:28:01.851Z,9.2
2023-04-17T01:29:01.814Z,9.2
2023-04-17T01:30:01.915Z,9.3
2023-04-17T01:31:01.684Z,9.3
2023-04-17T01:32:01.835Z,9.3
2023-04-17T01:33:01.936Z,9.4
2023-04-17T01:34:01.968Z,9.3
2023-04-17T01:35:01.965Z,9.3
2023-04-17T01:36:01.974Z,9.3
2023-04-17T01:37:01.803Z,9.2
2023-04-17T01:38:01.764Z,9.1
2023-04-17T01:39:01.857Z,9
2023-04-17T01:40:01.714Z,9
2023-04-17T01:41:01.742Z,9.1
2023-04-17T01:42:01.590Z,9.1
2023-04-17T01:43:01.648Z,9
2023-04-17T01:44:01.507Z,9
2023-04-17T01:45:01.580Z,9
2023-04-17T01:46:01.390Z,8.9
2023-04-17T01:47:01.474Z,8.9
2023-04-17T01:48:01.532Z,8.8
2023-04-17T01:49:01.367Z,8.8
2023-04-17T01:50:01.376Z,8.8
2023-04-17T01:51:02.331Z,8.9
2023-04-17T01:52:02.222Z,8.8
2023-04-17T01:53:02.229Z,8.9
2023-04-17T01:54:02.115Z,8.8
2023-04-17T01:55:02.177Z,8.7
2023-04-17T01:56:02.108Z,8.7
2023-04-17T01:57:02.164Z,8.7
2023-04-17T01:58:02.054Z,8.7
2023-04-17T01:59:02.088Z,8.7
2023-04-17T02:00:01.929Z,8.6
2023-04-17T02:01:01.863Z,8.6
2023-04-17T02:02:01.951Z,8.6
2023-04-17T02:03:02.030Z,8.5
2023-04-17T02:04:02.349Z,8.6
2023-04-17T02:05:01.385Z,8.6
2023-04-17T02:06:01.422Z,8.6
2023-04-17T02:07:01.279Z,8.6
2023-04-17T02:08:02.391Z,8.5
2023-04-17T02:09:02.273Z,8.5
2023-04-17T02:10:02.311Z,8.6
2023-04-17T02:11:02.164Z,8.7
2023-04-17T02:12:02.207Z,8.6
2023-04-17T02:13:02.109Z,8.5
2023-04-17T02:14:02.203Z,8.6
2023-04-17T02:15:02.059Z,8.6
2023-04-17T02:16:02.159Z,8.5
2023-04-17T02:17:01.872Z,8.5
2023-04-17T02:18:01.941Z,8.4
2023-04-17T02:19:01.918Z,8.4
2023-04-17T02:20:01.744Z,8.5
2023-04-17T02:21:01.838Z,8.5
2023-04-17T02:22:01.638Z,8.5
2023-04-17T02:23:01.696Z,8.5
2023-04-17T02:24:01.564Z,8.5
2023-04-17T02:25:01.542Z,8.6
2023-04-17T02:26:01.506Z,8.7
2023-04-17T02:27:01.421Z,8.6
2023-04-17T02:28:01.342Z,8.5
2023-04-17T02:29:01.468Z,8.5
2023-04-17T02:30:02.379Z,8.4
2023-04-17T02:31:02.216Z,8.5
2023-04-17T02:32:02.095Z,8.5
2023-04-17T02:33:02.255Z,8.5
2023-04-17T02:34:02.134Z,8.5
2023-04-17T02:35:02.239Z,8.5
2023-04-17T02:36:02.131Z,8.4
2023-04-17T02:37:02.190Z,8.4
2023-04-17T02:38:02.096Z,8.4
2023-04-17T02:39:02.135Z,8.4
2023-04-17T02:40:01.971Z,8.3
2023-04-17T02:41:02.027Z,8.3
2023-04-17T02:42:01.878Z,8.2
2023-04-17T02:43:01.851Z,8.3
2023-04-17T02:44:01.953Z,8.4
2023-04-17T02:45:01.846Z,8.4
2023-04-17T02:46:01.733Z,8.3
2023-04-17T02:47:01.703Z,8.3
2023-04-17T02:48:01.744Z,8.2
2023-04-17T02:49:01.671Z,8.2
2023-04-17T02:50:01.533Z,8.2
2023-04-17T02:51:01.452Z,8.3
2023-04-17T02:52:01.533Z,8.3
2023-04-17T02:53:01.367Z,8.3
2023-04-17T02:54:01.388Z,8.2
2023-04-17T02:55:01.406Z,8.2
2023-04-17T02:56:02.393Z,8.2
2023-04-17T02:57:02.249Z,8.2
2023-04-17T02:58:02.314Z,8.2
2023-04-17T02:59:02.172Z,8.3
2023-04-17T03:00:02.273Z,8.3
2023-04-17T03:01:02.275Z,8.2
2023-04-17T03:02:02.125Z,8.1
2023-04-17T03:03:02.235Z,8.1
2023-04-17T03:04:01.774Z,8.1
2023-04-17T03:05:02.300Z,8
2023-04-17T03:06:02.256Z,8
2023-04-17T03:07:02.153Z,8
2023-04-17T03:08:02.146Z,8.1
2023-04-17T03:09:02.175Z,8.1
2023-04-17T03:10:02.021Z,8.2
2023-04-17T03:11:02.084Z,8.2
2023-04-17T03:12:02.042Z,8.2
2023-04-17T03:13:01.917Z,8.2
2023-04-17T03:14:01.976Z,8.1
2023-04-17T03:15:01.817Z,8.1
2023-04-17T03:16:01.813Z,8.2
2023-04-17T03:17:01.745Z,8.1
2023-04-17T03:18:01.890Z,8.2
2023-04-17T03:19:01.712Z,8.2
2023-04-17T03:20:01.653Z,8.1
2023-04-17T03:21:01.534Z,8.1
2023-04-17T03:22:01.606Z,8.2
2023-04-17T03:23:01.403Z,8.2
2023-04-17T03:24:01.458Z,8.2
2023-04-17T03:25:01.326Z,8.1
2023-04-17T03:26:02.382Z,8.1
2023-04-17T03:27:02.267Z,8.1
2023-04-17T03:28:02.295Z,8.1
2023-04-17T03:29:02.261Z,8
2023-04-17T03:30:02.269Z,8
2023-04-17T03:31:02.180Z,8.1
2023-04-17T03:32:02.082Z,7.9
2023-04-17T03:33:02.065Z,7.9
2023-04-17T03:34:02.234Z,7.9
2023-04-17T03:35:02.123Z,7.9
2023-04-17T03:36:02.192Z,8
2023-04-17T03:37:01.994Z,7.9
2023-04-17T03:38:01.920Z,7.9
2023-04-17T03:39:01.946Z,7.8
2023-04-17T03:40:01.812Z,7.8
2023-04-17T03:41:01.726Z,7.7
2023-04-17T03:42:01.716Z,7.8
2023-04-17T03:43:01.616Z,7.8
2023-04-17T03:44:01.727Z,7.7
2023-04-17T03:45:01.523Z,7.7
2023-04-17T03:46:01.608Z,7.8
2023-04-17T03:47:01.450Z,7.8
2023-04-17T03:48:01.511Z,7.8
2023-04-17T03:49:01.458Z,7.8
2023-04-17T03:50:01.522Z,7.7
2023-04-17T03:51:01.379Z,7.8
2023-04-17T03:52:01.367Z,7.9
2023-04-17T03:53:02.352Z,7.8
2023-04-17T03:54:02.256Z,7.8
2023-04-17T03:55:02.342Z,7.8
2023-04-17T03:56:02.211Z,7.6
2023-04-17T03:57:02.263Z,7.6
2023-04-17T03:58:02.132Z,7.8
2023-04-17T03:59:02.186Z,7.8
2023-04-17T04:00:02.366Z,7.8
2023-04-17T04:01:01.498Z,7.9
2023-04-17T04:02:01.994Z,7.8
2023-04-17T04:03:02.152Z,7.8
2023-04-17T04:04:01.805Z,7.8
2023-04-17T04:05:02.065Z,7.8
2023-04-17T04:06:01.999Z,7.9
2023-04-17T04:07:02.065Z,7.9
2023-04-17T04:08:01.928Z,8.1
2023-04-17T04:09:01.850Z,8
2023-04-17T04:10:01.925Z,8
2023-04-17T04:11:01.768Z,8.1
2023-04-17T04:12:01.826Z,8.1
2023-04-17T04:13:01.698Z,8
2023-04-17T04:14:01.776Z,8
2023-04-17T04:15:01.601Z,7.9
2023-04-17T04:16:01.660Z,7.9
2023-04-17T04:17:01.526Z,8
2023-04-17T04:18:01.623Z,8.1
2023-04-17T04:19:01.509Z,8
2023-04-17T04:20:01.472Z,7.9
2023-04-17T04:21:01.320Z,7.9
2023-04-17T04:22:01.308Z,8.1
2023-04-17T04:23:02.359Z,8
2023-04-17T04:24:02.186Z,7.9
2023-04-17T04:25:02.303Z,7.9
2023-04-17T04:26:02.148Z,8
2023-04-17T04:27:02.230Z,8
2023-04-17T04:28:02.110Z,7.9
2023-04-17T04:29:01.838Z,7.9
2023-04-17T04:30:01.689Z,7.9
2023-04-17T04:31:01.672Z,7.9
2023-04-17T04:32:01.529Z,7.9
2023-04-17T04:33:01.574Z,7.9
2023-04-17T04:34:01.414Z,8
2023-04-17T04:35:01.414Z,8.1
2023-04-17T04:36:01.753Z,8.1
2023-04-17T04:37:01.691Z,8.1
2023-04-17T04:38:01.716Z,8.1
2023-04-17T04:39:01.593Z,8.2
2023-04-17T04:40:01.606Z,8.1
2023-04-17T04:41:01.442Z,8.2
2023-04-17T04:42:01.450Z,8.2
2023-04-17T04:43:01.283Z,8.3
2023-04-17T04:44:02.694Z,8.3
2023-04-17T04:45:01.427Z,8.3
2023-04-17T04:46:01.409Z,8.3
2023-04-17T04:47:02.185Z,8.3
2023-04-17T04:48:02.251Z,8.3
2023-04-17T04:49:02.281Z,8.4
2023-04-17T04:50:02.290Z,8.5
2023-04-17T04:51:02.298Z,8.4
2023-04-17T04:52:02.167Z,8.5
2023-04-17T04:53:02.311Z,8.4
2023-04-17T04:54:02.164Z,8.4
2023-04-17T04:55:02.253Z,8.4
2023-04-17T04:56:02.201Z,8.5
2023-04-17T04:57:02.255Z,8.5
2023-04-17T04:58:02.141Z,8.6
2023-04-17T04:59:02.295Z,8.5
2023-04-17T05:00:02.198Z,8.4
2023-04-17T05:01:02.276Z,8.6
2023-04-17T05:02:02.193Z,8.7
2023-04-17T05:03:02.367Z,8.7
2023-04-17T05:04:02.094Z,8.7
2023-04-17T05:05:01.634Z,8.7
2023-04-17T05:06:01.771Z,8.7
2023-04-17T05:07:01.735Z,8.4
2023-04-17T05:08:01.805Z,8.6
2023-04-17T05:09:01.651Z,8.7
2023-04-17T05:10:01.667Z,8.7
2023-04-17T05:11:01.513Z,8.8
2023-04-17T05:12:01.541Z,8.8
2023-04-17T05:13:01.398Z,8.8
2023-04-17T05:14:01.392Z,8.6
2023-04-17T05:15:01.993Z,8.7
2023-04-17T05:16:02.018Z,8.8
2023-04-17T05:17:01.951Z,8.8
2023-04-17T05:18:01.943Z,8.8
2023-04-17T05:19:01.848Z,8.9
2023-04-17T05:20:01.794Z,8.8
2023-04-17T05:21:01.971Z,8.8
2023-04-17T05:22:01.696Z,8.8
2023-04-17T05:23:01.838Z,8.8
2023-04-17T05:24:01.717Z,8.9
2023-04-17T05:25:01.537Z,8.8
2023-04-17T05:26:01.492Z,9
2023-04-17T05:27:01.557Z,9
2023-04-17T05:28:01.495Z,8.9
2023-04-17T05:29:01.376Z,8.9
2023-04-17T05:30:01.275Z,9
2023-04-17T05:31:02.285Z,9.1
2023-04-17T05:32:01.983Z,9.2
2023-04-17T05:33:02.040Z,9.2
2023-04-17T05:34:01.932Z,9.2
2023-04-17T05:35:01.805Z,9.2
2023-04-17T05:36:01.879Z,9.3
2023-04-17T05:37:01.828Z,9.3
2023-04-17T05:38:01.680Z,9.4
2023-04-17T05:39:01.686Z,9.3
2023-04-17T05:40:01.571Z,9.2
2023-04-17T05:41:01.533Z,9.3
2023-04-17T05:42:01.452Z,9.3
2023-04-17T05:43:01.414Z,9.4
2023-04-17T05:44:01.314Z,9.5
2023-04-17T05:45:01.395Z,9.5
2023-04-17T05:46:02.348Z,9.6
2023-04-17T05:47:02.261Z,9.6
2023-04-17T05:48:02.368Z,9.7
2023-04-17T05:49:02.231Z,9.8
2023-04-17T05:50:02.310Z,9.7
2023-04-17T05:51:02.219Z,9.8
2023-04-17T05:52:02.227Z,9.7
2023-04-17T05:53:02.186Z,9.7
2023-04-17T05:54:02.312Z,9.7
2023-04-17T05:55:02.231Z,9.8
2023-04-17T05:56:02.279Z,9.9
2023-04-17T05:57:02.247Z,9.8
2023-04-17T05:58:07.973Z,9.8
2023-04-17T05:59:02.075Z,9.5
2023-04-17T06:00:02.043Z,9.6
2023-04-17T06:01:01.864Z,9.6
2023-04-17T06:02:01.619Z,9.7
2023-04-17T06:03:01.936Z,9.8
2023-04-17T06:04:02.057Z,9.9
2023-04-17T06:05:01.894Z,9.9
2023-04-17T06:06:02.335Z,9.9
2023-04-17T06:07:02.189Z,9.9
2023-04-17T06:08:02.256Z,9.8
2023-04-17T06:09:02.235Z,9.9
2023-04-17T06:10:02.212Z,9.8
2023-04-17T06:11:02.202Z,10
2023-04-17T06:12:02.203Z,10.2
2023-04-17T06:13:02.187Z,10.2
2023-04-17T06:14:02.252Z,10.2
2023-04-17T06:15:02.301Z,10.3
2023-04-17T06:16:02.296Z,10.3
2023-04-17T06:17:02.190Z,10.4
2023-04-17T06:18:02.228Z,10.5
2023-04-17T06:19:02.104Z,10.6
2023-04-17T06:20:02.059Z,10.7
2023-04-17T06:21:01.922Z,10.7
2023-04-17T06:22:01.908Z,10.7
2023-04-17T06:23:01.861Z,10.7
2023-04-17T06:24:01.834Z,10.9
2023-04-17T06:25:01.833Z,11
2023-04-17T06:26:01.864Z,11
2023-04-17T06:27:01.743Z,11.1
2023-04-17T06:28:01.806Z,11
2023-04-17T06:29:01.684Z,10.8
2023-04-17T06:30:01.697Z,10.8
2023-04-17T06:31:01.567Z,10.7
2023-04-17T06:32:01.720Z,10.8
2023-04-17T06:33:01.790Z,10.7
2023-04-17T06:34:01.622Z,10.8
2023-04-17T06:35:01.602Z,11
2023-04-17T06:36:01.519Z,11.1
2023-04-17T06:37:01.563Z,11.3
2023-04-17T06:38:01.416Z,11.4
2023-04-17T06:39:01.458Z,11.4
2023-04-17T06:40:01.642Z,11.5
2023-04-17T06:41:01.651Z,11.5
2023-04-17T06:42:01.545Z,11.5
2023-04-17T06:43:01.618Z,11.5
2023-04-17T06:44:01.455Z,11.8
2023-04-17T06:45:01.527Z,11.8
2023-04-17T06:46:01.383Z,11.9
2023-04-17T06:47:02.962Z,11.8
2023-04-17T06:48:01.919Z,11.8
2023-04-17T06:49:01.868Z,11.7
2023-04-17T06:50:01.685Z,11.6
2023-04-17T06:51:01.727Z,11.7
2023-04-17T06:52:01.618Z,11.7
2023-04-17T06:53:01.614Z,11.7
2023-04-17T06:54:01.479Z,11.8
2023-04-17T06:55:01.534Z,11.9
2023-04-17T06:56:01.393Z,11.9
2023-04-17T06:57:01.432Z,11.9
2023-04-17T06:58:01.278Z,11.6
2023-04-17T06:59:03.197Z,11.8
2023-04-17T07:00:02.056Z,12
2023-04-17T07:01:02.128Z,12
2023-04-17T07:02:01.915Z,11.9
2023-04-17T07:03:02.176Z,12
2023-04-17T07:04:01.409Z,12.2
2023-04-17T07:05:01.392Z,12.3
2023-04-17T07:06:01.395Z,12.6
2023-04-17T07:07:01.292Z,12.8
2023-04-17T07:08:02.358Z,13
2023-04-17T07:09:02.250Z,13
2023-04-17T07:10:02.326Z,13
2023-04-17T07:11:02.268Z,13.1
2023-04-17T07:12:02.328Z,13.4
2023-04-17T07:13:01.275Z,13.1
2023-04-17T07:14:02.358Z,12.8
2023-04-17T07:15:02.249Z,12.8
2023-04-17T07:16:02.339Z,12.5
2023-04-17T07:17:02.030Z,12.4
2023-04-17T07:18:02.123Z,12.5
2023-04-17T07:19:01.971Z,12.3
2023-04-17T07:20:01.950Z,12.4
2023-04-17T07:21:01.929Z,12.4
2023-04-17T07:22:01.815Z,12.4
2023-04-17T07:23:01.765Z,12.5
2023-04-17T07:24:01.862Z,12.4
2023-04-17T07:25:01.727Z,12.6
2023-04-17T07:26:01.688Z,12.5
2023-04-17T07:27:01.616Z,12.7
2023-04-17T07:28:03.260Z,12.6
2023-04-17T07:29:01.320Z,12.5
2023-04-17T07:30:01.314Z,12.4
2023-04-17T07:31:02.352Z,12.6
2023-04-17T07:32:01.304Z,12.6
2023-04-17T07:33:02.357Z,12.6
2023-04-17T07:34:02.212Z,12.6
2023-04-17T07:35:02.276Z,12.8
2023-04-17T07:36:02.199Z,12.7
2023-04-17T07:37:02.215Z,12.9
2023-04-17T07:38:02.153Z,12.9
2023-04-17T07:39:02.147Z,13.2
2023-04-17T07:40:02.066Z,13.3
2023-04-17T07:41:02.089Z,13.4
2023-04-17T07:42:01.989Z,13.3
2023-04-17T07:43:02.063Z,13.5
2023-04-17T07:44:02.001Z,13.4
2023-04-17T07:45:01.865Z,13.7
2023-04-17T07:46:01.837Z,13.8
2023-04-17T07:47:02.137Z,13.7
2023-04-17T07:48:02.068Z,13.5
2023-04-17T07:49:01.983Z,13.7
2023-04-17T07:50:01.888Z,13.7
2023-04-17T07:51:01.902Z,14
2023-04-17T07:52:01.793Z,14.3
2023-04-17T07:53:01.770Z,14.6
2023-04-17T07:54:01.807Z,14.6
2023-04-17T07:55:01.715Z,14.9
2023-04-17T07:56:01.682Z,14.5
2023-04-17T07:57:01.587Z,14.8
2023-04-17T07:58:01.627Z,14.6
2023-04-17T07:59:01.483Z,14.7
2023-04-17T08:00:01.967Z,14.7
2023-04-17T08:01:01.808Z,14.5
2023-04-17T08:02:01.961Z,14.5
2023-04-17T08:03:02.268Z,14.2
2023-04-17T08:04:02.218Z,14.3
2023-04-17T08:05:02.199Z,14.3
2023-04-17T08:06:01.606Z,14.3
2023-04-17T08:07:01.399Z,14
2023-04-17T08:08:01.468Z,14.3
2023-04-17T08:09:01.314Z,14.3
2023-04-17T08:10:01.356Z,14.1
2023-04-17T08:11:02.284Z,14.3
2023-04-17T08:12:02.173Z,14.3
2023-04-17T08:13:02.194Z,13.9
2023-04-17T08:14:02.113Z,14.1
2023-04-17T08:15:02.186Z,14
2023-04-17T08:16:02.141Z,13.9
2023-04-17T08:17:02.299Z,14
2023-04-17T08:18:02.410Z,14
2023-04-17T08:19:02.255Z,14.1
2023-04-17T08:20:02.298Z,14.2
2023-04-17T08:21:02.164Z,14.7
2023-04-17T08:22:02.262Z,15.1
2023-04-17T08:23:02.126Z,15.4
2023-04-17T08:24:02.191Z,15.6
2023-04-17T08:25:02.113Z,15.7
2023-04-17T08:26:02.133Z,15.6
2023-04-17T08:27:01.982Z,15.4
2023-04-17T08:28:02.002Z,15.4
2023-04-17T08:29:01.997Z,15.2
2023-04-17T08:30:01.878Z,15.2
2023-04-17T08:31:01.921Z,15.5
2023-04-17T08:32:13.792Z,15.3
2023-04-17T08:33:02.232Z,15.2
2023-04-17T08:34:10.783Z,14.6
2023-04-17T08:35:02.091Z,15
2023-04-17T08:36:03.991Z,15.2
2023-04-17T08:37:01.402Z,15.5
2023-04-17T08:38:01.475Z,15.7
2023-04-17T08:39:01.311Z,15.6
2023-04-17T08:40:02.317Z,15.4
2023-04-17T08:41:02.222Z,15.4
2023-04-17T08:42:02.313Z,15.2
2023-04-17T08:43:02.182Z,15.1
2023-04-17T08:44:02.184Z,14.9
2023-04-17T08:45:02.202Z,14.7
2023-04-17T08:46:02.175Z,14.6
2023-04-17T08:47:01.949Z,14.7
2023-04-17T08:48:01.981Z,14.3
2023-04-17T08:49:01.827Z,14.5
2023-04-17T08:50:01.790Z,15.1
2023-04-17T08:51:01.824Z,15.4
2023-04-17T08:52:01.689Z,15.3
2023-04-17T08:53:01.741Z,15
2023-04-17T08:54:01.641Z,15.5
2023-04-17T08:55:01.694Z,15.8
2023-04-17T08:56:03.499Z,15.9
2023-04-17T08:57:02.266Z,15.9
2023-04-17T08:58:02.327Z,16
2023-04-17T08:59:02.212Z,15.9
2023-04-17T09:00:02.382Z,15.5
2023-04-17T09:01:02.253Z,15.4
2023-04-17T09:02:02.430Z,15.4
2023-04-17T09:03:02.036Z,15.4
2023-04-17T09:04:02.407Z,15.6
2023-04-17T09:05:01.996Z,15.6
2023-04-17T09:06:01.340Z,15.4
2023-04-17T09:07:02.320Z,15.6
2023-04-17T09:08:02.231Z,15.7
2023-04-17T09:09:02.299Z,15.5
2023-04-17T09:10:02.190Z,15.4
2023-04-17T09:11:02.212Z,15.3
2023-04-17T09:12:02.078Z,15.5
2023-04-17T09:13:02.180Z,15.6
2023-04-17T09:14:02.101Z,15.4
2023-04-17T09:15:02.133Z,15.3
2023-04-17T09:16:02.034Z,15.5
2023-04-17T09:17:02.162Z,16.1
2023-04-17T09:18:02.182Z,16.4
2023-04-17T09:19:02.149Z,16.1
2023-04-17T09:20:02.198Z,16.5
2023-04-17T09:21:02.104Z,16.3
2023-04-17T09:22:02.167Z,16.2
2023-04-17T09:23:02.083Z,16.9
2023-04-17T09:24:02.151Z,16.2
2023-04-17T09:25:02.098Z,15.9
2023-04-17T09:26:02.131Z,15.5
2023-04-17T09:27:02.062Z,15.6
2023-04-17T09:28:01.963Z,15.6
2023-04-17T09:29:02.029Z,15.1
2023-04-17T09:30:01.948Z,15.1
2023-04-17T09:31:01.923Z,15.7
2023-04-17T09:32:01.821Z,15.9
2023-04-17T09:33:01.928Z,16
2023-04-17T09:34:01.724Z,16.8
2023-04-17T09:35:01.776Z,16.8
2023-04-17T09:36:01.732Z,17.1
2023-04-17T09:37:01.642Z,17
2023-04-17T09:38:01.583Z,16.5
2023-04-17T09:39:01.485Z,17.1
2023-04-17T09:40:01.536Z,17.2
2023-04-17T09:41:01.393Z,17
2023-04-17T09:42:03.106Z,16.7
2023-04-17T09:43:01.925Z,17
2023-04-17T09:44:01.959Z,16.9
2023-04-17T09:45:01.934Z,16.7
2023-04-17T09:46:01.743Z,16.4
2023-04-17T09:47:01.670Z,16.2
2023-04-17T09:48:01.848Z,16.4
2023-04-17T09:49:01.754Z,16.4
2023-04-17T09:50:01.619Z,16.9
2023-04-17T09:51:01.669Z,16.5
2023-04-17T09:52:01.550Z,16.6
2023-04-17T09:53:01.704Z,17.3
2023-04-17T09:54:01.594Z,17.1
2023-04-17T09:55:01.623Z,17.2
2023-04-17T09:56:01.486Z,17.5
2023-04-17T09:57:01.514Z,17
2023-04-17T09:58:01.356Z,17
2023-04-17T09:59:01.429Z,16.7
2023-04-17T10:00:01.511Z,16.7
2023-04-17T10:01:01.645Z,16.9
2023-04-17T10:02:02.370Z,16.6
2023-04-17T10:03:01.890Z,17.1
2023-04-17T10:04:02.359Z,16.6
2023-04-17T10:05:01.592Z,16.6
2023-04-17T10:06:01.627Z,16.5
2023-04-17T10:07:01.521Z,16.1
2023-04-17T10:08:01.549Z,16.3
2023-04-17T10:09:01.410Z,16.2
2023-04-17T10:10:01.449Z,16.3
2023-04-17T10:11:01.303Z,17.1
2023-04-17T10:12:02.372Z,17.2
2023-04-17T10:13:02.266Z,17
2023-04-17T10:14:02.322Z,17.1
2023-04-17T10:15:02.322Z,17.2
2023-04-17T10:16:02.219Z,17.2
2023-04-17T10:17:02.095Z,17.3
2023-04-17T10:18:02.138Z,17.3
2023-04-17T10:19:02.027Z,17.3
2023-04-17T10:20:02.009Z,17.1
2023-04-17T10:21:01.959Z,17
2023-04-17T10:22:01.821Z,16.6
2023-04-17T10:23:01.825Z,16.5
2023-04-17T10:24:01.715Z,16.6
2023-04-17T10:25:01.781Z,17.2
2023-04-17T10:26:01.632Z,16.9
2023-04-17T10:27:01.661Z,16.7
2023-04-17T10:28:01.459Z,16.5
2023-04-17T10:29:01.452Z,16.4
2023-04-17T10:30:01.347Z,16.5
2023-04-17T10:31:01.295Z,16.5
2023-04-17T10:32:02.296Z,16.2
2023-04-17T10:33:02.139Z,16.4
2023-04-17T10:34:02.202Z,16.2
2023-04-17T10:35:02.158Z,16.1
2023-04-17T10:36:02.180Z,16.1
2023-04-17T10:37:02.044Z,16
2023-04-17T10:38:02.045Z,16.3
2023-04-17T10:39:01.891Z,16.1
2023-04-17T10:40:01.859Z,15.9
2023-04-17T10:41:01.905Z,15.8
2023-04-17T10:42:01.760Z,15.8
2023-04-17T10:43:01.733Z,15.6
2023-04-17T10:44:01.705Z,15.8
2023-04-17T10:45:01.876Z,15.8
2023-04-17T10:46:01.916Z,15.5
2023-04-17T10:47:01.701Z,15.7
2023-04-17T10:48:01.839Z,15.6
2023-04-17T10:49:01.866Z,15.6
2023-04-17T10:50:01.800Z,15.6
2023-04-17T10:51:01.912Z,15.5
2023-04-17T10:52:01.736Z,15.2
2023-04-17T10:53:01.751Z,15.1
2023-04-17T10:54:01.638Z,15.1
2023-04-17T10:55:01.668Z,15.5
2023-04-17T10:56:01.531Z,15.7
2023-04-17T10:57:01.524Z,15.6
2023-04-17T10:58:01.409Z,15.7
2023-04-17T10:59:01.457Z,15.8
2023-04-17T11:00:02.003Z,15.8
2023-04-17T11:01:01.973Z,15.7
2023-04-17T11:02:02.251Z,15.8
2023-04-17T11:03:01.554Z,16
2023-04-17T11:04:02.053Z,16.1
2023-04-17T11:05:02.031Z,16.1
2023-04-17T11:06:02.073Z,16
2023-04-17T11:07:01.927Z,16.1
2023-04-17T11:08:01.855Z,15.8
2023-04-17T11:09:01.858Z,15.8
2023-04-17T11:10:01.750Z,15.9
2023-04-17T11:11:01.785Z,16.1
2023-04-17T11:12:02.100Z,15.8
2023-04-17T11:13:01.318Z,15.7
2023-04-17T11:14:02.406Z,15.9
2023-04-17T11:15:02.309Z,15.8
2023-04-17T11:16:02.374Z,15.6
2023-04-17T11:17:02.312Z,15.8
2023-04-17T11:18:01.573Z,15.4
2023-04-17T11:19:01.557Z,15.3
2023-04-17T11:20:01.586Z,15.6
2023-04-17T11:21:01.442Z,15.3
2023-04-17T11:22:01.637Z,15.6
2023-04-17T11:23:01.490Z,15.2
2023-04-17T11:24:01.499Z,15.4
2023-04-17T11:25:01.270Z,15.5
2023-04-17T11:26:02.299Z,15
2023-04-17T11:27:02.299Z,14.7
2023-04-17T11:28:02.274Z,15
2023-04-17T11:29:02.121Z,14.9
2023-04-17T11:30:02.214Z,15.1
2023-04-17T11:31:02.164Z,15
2023-04-17T11:32:02.101Z,15.3
2023-04-17T11:33:02.231Z,15.3
2023-04-17T11:34:02.302Z,15.1
2023-04-17T11:35:02.363Z,15.1
2023-04-17T11:36:02.243Z,15.1
2023-04-17T11:37:02.290Z,15.1
2023-04-17T11:38:02.121Z,14.9
2023-04-17T11:39:02.162Z,15
2023-04-17T11:40:02.137Z,14.5
2023-04-17T11:41:02.125Z,14.8
2023-04-17T11:42:02.047Z,14.5
2023-04-17T11:43:02.117Z,14.3
2023-04-17T11:44:01.960Z,14.4
2023-04-17T11:45:03.070Z,14.4
2023-04-17T11:46:01.397Z,14.6
2023-04-17T11:47:01.591Z,14.5
2023-04-17T11:48:01.582Z,14.4
2023-04-17T11:49:01.477Z,14.1
2023-04-17T11:50:01.468Z,14
2023-04-17T11:51:01.372Z,14.1
2023-04-17T11:52:01.397Z,14
2023-04-17T11:53:02.373Z,14.1
2023-04-17T11:54:02.225Z,13.9
2023-04-17T11:55:02.259Z,13.9
2023-04-17T11:56:02.157Z,13.8
2023-04-17T11:57:02.245Z,13.6
2023-04-17T11:58:02.083Z,13.9
2023-04-17T11:59:02.114Z,14.1
2023-04-17T12:00:02.051Z,14
2023-04-17T12:01:01.912Z,13.7
2023-04-17T12:02:02.075Z,13.5
2023-04-17T12:03:02.286Z,13.7
2023-04-17T12:04:01.784Z,13.3
2023-04-17T12:05:02.403Z,13.6
2023-04-17T12:06:01.376Z,13.5
2023-04-17T12:07:01.518Z,13.5
2023-04-17T12:08:01.384Z,13.6
2023-04-17T12:09:01.495Z,13.7
2023-04-17T12:10:01.314Z,13.6
2023-04-17T12:11:02.381Z,13.6
2023-04-17T12:12:02.275Z,14
2023-04-17T12:13:02.330Z,13.9
2023-04-17T12:14:02.435Z,13.5
2023-04-17T12:15:02.370Z,13.8
2023-04-17T12:16:02.251Z,13.8
2023-04-17T12:17:02.116Z,13.6
2023-04-17T12:18:02.044Z,13.8
2023-04-17T12:19:02.051Z,13.6
2023-04-17T12:20:01.899Z,13.6
2023-04-17T12:21:01.873Z,13.8
2023-04-17T12:22:02.004Z,13.8
2023-04-17T12:23:01.790Z,13.9
2023-04-17T12:24:01.726Z,13.8
2023-04-17T12:25:02.748Z,13.7
2023-04-17T12:26:01.494Z,13.7
2023-04-17T12:27:01.416Z,13.8
2023-04-17T12:28:01.412Z,13.8
2023-04-17T12:29:01.370Z,13.7
2023-04-17T12:30:01.254Z,13.6
2023-04-17T12:31:02.322Z,13.8
2023-04-17T12:32:02.423Z,13.6
2023-04-17T12:33:01.462Z,13.8
2023-04-17T12:34:01.297Z,13.7
2023-04-17T12:35:02.372Z,13.6
2023-04-17T12:36:02.318Z,13.4
2023-04-17T12:37:02.289Z,13.6
2023-04-17T12:38:02.318Z,13.9
2023-04-17T12:39:02.260Z,13.5
2023-04-17T12:40:02.181Z,13.4
2023-04-17T12:41:02.254Z,13.3
2023-04-17T12:42:02.204Z,13.5
2023-04-17T12:43:02.237Z,13.5
2023-04-17T12:44:02.143Z,13.3
2023-04-17T12:45:02.168Z,13.1
2023-04-17T12:46:02.063Z,13.3
2023-04-17T12:47:02.103Z,13.1
2023-04-17T12:48:02.258Z,13.2
2023-04-17T12:49:02.075Z,13.2
2023-04-17T12:50:02.176Z,13.1
2023-04-17T12:51:02.160Z,13.2
2023-04-17T12:52:03.750Z,13.2
2023-04-17T12:53:01.883Z,13.3
2023-04-17T12:54:01.956Z,13.4
2023-04-17T12:55:01.825Z,13.2
2023-04-17T12:56:01.827Z,13.1
2023-04-17T12:57:01.883Z,13.2
2023-04-17T12:58:01.760Z,13.1
2023-04-17T12:59:03.105Z,13.3
2023-04-17T13:00:02.044Z,13.3
2023-04-17T13:01:01.959Z,13.6
2023-04-17T13:02:02.059Z,13.6
2023-04-17T13:03:01.447Z,13.5
2023-04-17T13:04:01.818Z,13.4
2023-04-17T13:05:01.489Z,13.4
2023-04-17T13:06:01.479Z,13.5
2023-04-17T13:07:01.421Z,13.6
2023-04-17T13:08:01.473Z,13.6
2023-04-17T13:09:01.280Z,13.4
2023-04-17T13:10:02.314Z,13.6
2023-04-17T13:11:02.225Z,13.7
2023-04-17T13:12:02.294Z,13.5
2023-04-17T13:13:02.248Z,13.4
2023-04-17T13:14:02.301Z,13.6
2023-04-17T13:15:02.185Z,13.7
2023-04-17T13:16:02.198Z,13.8
2023-04-17T13:17:01.651Z,13.8
2023-04-17T13:18:01.714Z,13.6
2023-04-17T13:19:01.615Z,13.9
2023-04-17T13:20:01.693Z,13.9
2023-04-17T13:21:01.566Z,13.9
2023-04-17T13:22:01.706Z,13.7
2023-04-17T13:23:01.495Z,13.5
2023-04-17T13:24:01.540Z,13.4
2023-04-17T13:25:01.373Z,13.5
2023-04-17T13:26:01.438Z,13.5
2023-04-17T13:27:01.418Z,13.5
2023-04-17T13:28:02.391Z,13.5
2023-04-17T13:29:02.334Z,13.7
2023-04-17T13:30:02.362Z,13.6
2023-04-17T13:31:01.305Z,13.7
2023-04-17T13:32:02.280Z,13.8
2023-04-17T13:33:02.424Z,13.8
2023-04-17T13:34:02.273Z,13.9
2023-04-17T13:35:01.369Z,13.8